»·PEaware :: N343GE KSBD-KEMT

N343GE :: KSBD-KEMT

FLIGHT INFORMATION

Flight Status: Arrived
Operator: Privately registered:
United States
More flights under this callsign
Pilot: Hyatt B. (30410)
Aircraft: SOCATA TBM-900
(TBM9)
More flights by this aircraft type
Origin: KSBD San Bernardino Intl
United States
Destination: KEMT El Monte
United States
More flights between these airports :: More routes between these airports
Route:
File this flight plan on PilotEdge
Remarks:
Altitude:
(Current/Filed)
4,500ft
Speed:
(Current/Filed)
135kts
Departed: 18-Jul-20 09:01 AM
Arrived: 18-Jul-20 09:29 AM
Distance/Time
Traveled:
40nm/0:28
Distance/Time
To Go:
Arrived

Flight Plot

Page will automatically refresh every two minutes.


Map Options




Map Legend


Flown Route
Filed Route
Departure Airport
Arrival Airport
Navaid (VOR, NDB)
Fix

Horizontal Profiles

Position Reports

Time Latitude Longitude Heading Altitude Ground
Speed
18-Jul-20 08:38 34.101582 -117.224596 179 1146ft 0kts
18-Jul-20 08:39 34.101582 -117.224596 179 1146ft 0kts
18-Jul-20 08:40 34.101582 -117.224596 179 1146ft 0kts
18-Jul-20 08:41 34.101582 -117.224596 179 1146ft 0kts
18-Jul-20 08:42 34.101582 -117.224596 179 1146ft 0kts
18-Jul-20 08:43 34.101582 -117.224596 179 1146ft 0kts
18-Jul-20 08:44 34.101582 -117.224596 179 1146ft 0kts
18-Jul-20 08:45 34.101582 -117.224596 179 1146ft 0kts
18-Jul-20 08:46 34.101582 -117.224596 179 1146ft 0kts
18-Jul-20 08:47 34.101582 -117.224596 179 1146ft 0kts
18-Jul-20 08:48 34.100958 -117.224826 230 1145ft 5kts
18-Jul-20 08:49 34.099854 -117.226553 220 1140ft 5kts
18-Jul-20 08:50 34.098691 -117.229621 250 1133ft 11kts
18-Jul-20 08:51 34.097523 -117.233544 250 1124ft 11kts
18-Jul-20 08:52 34.096541 -117.236896 250 1115ft 11kts
18-Jul-20 08:53 34.095345 -117.240949 250 1102ft 12kts
18-Jul-20 08:54 34.094161 -117.244948 251 1093ft 11kts
18-Jul-20 08:55 34.093361 -117.247676 251 1088ft 10kts
18-Jul-20 08:56 34.092473 -117.250643 245 1083ft 7kts
18-Jul-20 08:57 34.091646 -117.250786 160 1083ft 0kts
18-Jul-20 08:58 34.091646 -117.250786 160 1083ft 0kts
18-Jul-20 08:59 34.091022 -117.249229 69 1086ft 13kts
18-Jul-20 09:00 34.099855 -117.220211 69 1788ft 103kts
18-Jul-20 09:01 34.125063 -117.207808 353 3163ft 108kts
18-Jul-20 09:02 34.155130 -117.219620 290 4214ft 101kts
18-Jul-20 09:03 34.154487 -117.258550 267 4505ft 124kts
18-Jul-20 09:04 34.152813 -117.298234 265 4470ft 104kts
18-Jul-20 09:06 34.149870 -117.335301 264 4496ft 109kts
18-Jul-20 09:07 34.144623 -117.373368 250 4491ft 112kts
18-Jul-20 09:08 34.133555 -117.409705 250 4490ft 112kts
18-Jul-20 09:09 34.122552 -117.446330 250 4489ft 112kts
18-Jul-20 09:10 34.111537 -117.483001 250 4503ft 119kts
18-Jul-20 09:11 34.099205 -117.524344 250 4489ft 128kts
18-Jul-20 09:12 34.089694 -117.566597 268 4483ft 128kts
18-Jul-20 09:13 34.090504 -117.610999 281 4490ft 127kts
18-Jul-20 09:14 34.107449 -117.650351 298 4493ft 127kts
18-Jul-20 09:15 34.125073 -117.689221 298 4495ft 127kts
18-Jul-20 09:16 34.141860 -117.729083 289 4497ft 128kts
18-Jul-20 09:17 34.150274 -117.772618 281 4498ft 128kts
18-Jul-20 09:18 34.150916 -117.817155 266 4499ft 128kts
18-Jul-20 09:19 34.148903 -117.853846 266 4504ft 102kts
18-Jul-20 09:20 34.147776 -117.891202 274 4510ft 112kts
18-Jul-20 09:21 34.150915 -117.928170 276 4445ft 95kts
18-Jul-20 09:21 34.153458 -117.955686 276 3701ft 97kts
18-Jul-20 09:23 34.156506 -117.961607 200 2692ft 103kts
18-Jul-20 09:24 34.150168 -117.982512 353 2013ft 97kts
18-Jul-20 09:24 34.149196 -117.984345 276 1799ft 124kts
18-Jul-20 09:26 34.128969 -118.012761 193 1824ft 94kts
18-Jul-20 09:26 34.109834 -118.021309 205 1077ft 87kts
18-Jul-20 09:27 34.089722 -118.032745 204 334ft 79kts
18-Jul-20 09:28 34.083202 -118.036328 159 283ft 2kts
18-Jul-20 09:29 34.083065 -118.036112 113 284ft 0kts
18-Jul-20 09:30 34.083065 -118.036110 113 284ft 0kts
18-Jul-20 09:31 34.082759 -118.035442 140 286ft 0kts
18-Jul-20 09:32 34.082646 -118.035461 205 286ft 0kts
18-Jul-20 09:33 34.082646 -118.035461 205 286ft 0kts

Navigation Log

Ident Type
Flight plan parsing failed, navigation log unavailable